Terminal Aerodrome Forecast
Issued by NWS

Current Version | Previous Version | Text Only | Print | Product List | Glossary On
Versions: 1 2 3 4 5 6 7 8 9 10 11 12 13 14 15 16 17 18 19 20 21 22 23 24 25 26 27 28
066
FTUS43 KLOT 261739
TAFDPA
TAF
KDPA 261739Z 2618/2718 20007KT P6SM SCT015 OVC024
      TEMPO 2618/2622 BKN015
     FM270400 25005KT 5SM BR OVC009
     FM270900 31005KT 3SM BR SCT004 OVC007
     FM271500 04006KT P6SM OVC010=

USA.gov is the U.S. government's official web portal to all federal, state and local government web resources and services.